Saturday, January 20, 2018, 8:22 AM EST
Back to Local

KWST, Westerly State Airport

Location: Westerly, RI, United States Lat: 41.35
Local Time: 8:22 AM EST (13:22 GMT) Lon: -71.8
Time Zone: US/Eastern Elev: 82 ft

Show me the last for .
Show Coded

Time T Td Feel RH Dir Speed Gust Alt SLP Vis Weather Sky Remarks
2018-01-20 07:53 40 26 29 57 230° 15 26 29.80 29.80 10 CLR None
2018-01-20 06:53 38 27 27 64 230° 15 24 29.81 29.80 10 CLR 6-hr Min Temp (7am): 35.1°F
6-hr Max Temp (7am): 37.9°F
2018-01-20 05:53 38 28 28 67 220° 10 18 29.82 29.82 10 CLR None
2018-01-20 04:53 37 28 31 69 230° 8 - 29.84 29.84 10 CLR None
2018-01-20 03:53 38 27 32 64 240° 8 - 29.86 29.86 10 CLR None
2018-01-20 01:53 36 27 30 69 230° 8 - 29.89 29.89 9 CLR None
2018-01-20 00:53 35 26 30 69 220° 6 - 29.91 29.90 9 CLR 6-hr Min Temp (1am): 26.1°F
6-hr Max Temp (1am): 35.1°F
2018-01-19 23:53 29 23 25 78 210° 3 - 29.93 29.93 8 CLR 24-hr Min Temp (12am): 21.0°F
24-hr Max Temp (12am): 35.1°F
2018-01-19 22:53 28 24 - 84 - Calm - 29.95 29.95 7 CLR None
2018-01-19 21:53 32 24 - 72 - Calm - 29.98 29.98 9 CLR None
2018-01-19 20:53 32 24 29 72 250° 3 - 29.99 29.99 9 CLR None
2018-01-19 19:53 32 23 29 68 260° 3 - 29.99 29.99 9 CLR None
2018-01-19 18:53 32 23 27 68 250° 5 - 29.98 29.98 10 CLR 6-hr Min Temp (7pm): 32.0°F
6-hr Max Temp (7pm): 35.1°F
2018-01-19 17:53 32 23 27 68 250° 5 - 29.98 29.98 10 CLR None
2018-01-19 16:53 33 23 26 66 250° 8 - 29.98 29.98 9 CLR None
2018-01-19 15:53 34 23 27 63 230° 9 - 29.97 29.96 9 CLR None
2018-01-19 14:53 34 23 23 63 230° 10 17 29.96 29.96 9 CLR None
2018-01-19 13:53 34 22 22 60 240° 14 21 29.95 29.95 9 CLR None
2018-01-19 12:53 34 23 27 63 220° 9 - 29.96 29.96 8 CLR 6-hr Min Temp (1pm): 24.1°F
6-hr Max Temp (1pm): 34.0°F
2018-01-19 11:53 33 20 25 58 230° 9 - 29.99 29.99 9 CLR None
2018-01-19 10:53 32 19 24 58 220° 9 - 30.03 30.03 9 CLR None
2018-01-19 09:53 30 16 22 55 260° 8 - 30.04 30.04 9 CLR None
2018-01-19 08:53 28 16 23 60 Variable 5 - 30.04 30.04 9 CLR None

Support USWX by starting your Amazon purchase here.